Time;durP1;ratioP1;P1;durP2;ratioP2;P2;SDS_P1;SDS_P2;PMS_P1;PMS_P2;Temp;Humidity;BMP_temperature;BMP_pressure;BME280_temperature;BME280_humidity;BME280_pressure;Samples;Min_cycle;Max_cycle;Signal;HPM_P1;HPM_P2
2021/12/23 00:01:19;;;;;;;12.23;5.38;;;17.60;52.70;;;;;;5003836;28;20038;-62
2021/12/23 00:03:44;;;;;;;7.85;4.57;;;17.50;52.60;;;;;;5002196;28;20088;-62
2021/12/23 00:06:10;;;;;;;10.23;6.20;;;17.50;52.60;;;;;;5002811;28;20580;-62
2021/12/23 00:08:35;;;;;;;10.90;5.28;;;17.50;52.60;;;;;;5004802;28;20018;-64
2021/12/23 00:11:01;;;;;;;9.60;5.43;;;17.50;52.60;;;;;;5003805;28;20032;-63
2021/12/23 00:13:26;;;;;;;13.57;5.72;;;17.50;52.60;;;;;;5002896;28;20045;-62
2021/12/23 00:23:49;;;;;;;6.50;5.07;;;17.50;52.30;;;;;;5002543;28;20572;-64
2021/12/23 00:26:14;;;;;;;11.13;5.15;;;17.50;52.10;;;;;;5001263;28;20030;-62
2021/12/23 00:28:40;;;;;;;11.68;4.75;;;17.50;52.10;;;;;;4992147;28;20033;-65
2021/12/23 00:31:06;;;;;;;8.93;5.05;;;17.50;52.00;;;;;;4998614;28;20029;-61
2021/12/23 00:33:34;;;;;;;9.13;4.97;;;17.50;52.00;;;;;;4999629;28;20125;-62
2021/12/23 00:35:59;;;;;;;8.70;5.00;;;17.50;51.90;;;;;;4998850;28;20506;-64
2021/12/23 00:38:32;;;;;;;7.68;4.63;;;17.50;51.90;;;;;;5000705;28;20026;-63
2021/12/23 00:40:59;;;;;;;9.00;4.75;;;17.50;51.80;;;;;;5002221;28;20187;-63
2021/12/23 00:43:25;;;;;;;7.00;4.72;;;17.50;51.70;;;;;;5002250;28;20050;-57
2021/12/23 00:45:50;;;;;;;10.50;4.80;;;17.60;51.80;;;;;;5003968;28;20064;-58
2021/12/23 00:48:16;;;;;;;7.03;5.53;;;17.60;51.60;;;;;;5000562;28;20583;-62
2021/12/23 00:50:42;;;;;;;6.90;4.32;;;17.60;51.60;;;;;;5005246;28;20034;-62
2021/12/23 00:53:10;;;;;;;4.60;4.05;;;17.60;51.60;;;;;;5002965;28;20037;-64
2021/12/23 00:55:35;;;;;;;7.25;4.70;;;17.60;51.60;;;;;;5002879;28;20595;-63
2021/12/23 00:58:01;;;;;;;7.65;5.10;;;17.60;51.60;;;;;;5003027;28;20069;-62
2021/12/23 01:00:27;;;;;;;7.60;4.75;;;17.60;51.50;;;;;;5003354;28;20065;-60
2021/12/23 01:02:52;;;;;;;5.07;4.40;;;17.60;51.60;;;;;;5001555;28;20026;-64
2021/12/23 01:05:20;;;;;;;5.22;4.30;;;17.60;51.50;;;;;;5003467;28;20037;-63
2021/12/23 01:07:45;;;;;;;6.57;4.53;;;17.60;51.50;;;;;;5001714;28;20037;-62
2021/12/23 01:10:11;;;;;;;5.22;4.40;;;17.60;51.50;;;;;;5002254;28;20022;-65
2021/12/23 01:12:49;;;;;;;6.07;4.47;;;17.50;51.40;;;;;;4999761;28;20087;-66
2021/12/23 01:15:27;;;;;;;5.22;4.22;;;17.60;51.50;;;;;;5002247;28;20080;-61
2021/12/23 01:20:28;;;;;;;7.10;4.15;;;17.60;51.40;;;;;;5003436;28;20030;-62
2021/12/23 01:22:58;;;;;;;6.28;4.13;;;17.60;51.40;;;;;;5000227;28;20034;-62
2021/12/23 01:25:24;;;;;;;4.93;3.90;;;17.60;51.40;;;;;;5004069;28;20045;-61
2021/12/23 01:27:49;;;;;;;4.90;4.20;;;17.60;51.30;;;;;;4998078;28;20030;-64
2021/12/23 01:30:17;;;;;;;5.90;4.53;;;17.60;51.40;;;;;;5003872;28;20037;-66
2021/12/23 01:32:43;;;;;;;5.20;4.43;;;17.60;51.30;;;;;;5001471;28;20034;-61
2021/12/23 01:35:09;;;;;;;4.82;4.22;;;17.60;51.20;;;;;;5002946;28;20301;-61
2021/12/23 01:37:34;;;;;;;4.07;3.67;;;17.60;51.20;;;;;;5002333;28;20038;-59
2021/12/23 01:40:00;;;;;;;4.85;4.13;;;17.60;51.20;;;;;;5002374;28;20018;-62
2021/12/23 01:42:25;;;;;;;6.55;3.92;;;17.60;51.10;;;;;;4999833;28;20034;-61
2021/12/23 01:44:51;;;;;;;7.18;4.43;;;17.60;51.20;;;;;;5002196;28;20071;-56
2021/12/23 01:47:16;;;;;;;4.68;3.95;;;17.60;51.10;;;;;;4999784;28;20057;-62
2021/12/23 01:49:41;;;;;;;4.22;3.65;;;17.60;51.10;;;;;;5003451;28;20030;-66
2021/12/23 01:52:07;;;;;;;4.30;3.75;;;17.60;51.00;;;;;;5000071;28;20121;-61
2021/12/23 01:54:33;;;;;;;6.22;4.20;;;17.60;51.00;;;;;;5003472;28;20034;-64
2021/12/23 01:56:58;;;;;;;4.70;3.97;;;17.60;50.90;;;;;;5001122;28;20052;-64
2021/12/23 01:59:24;;;;;;;6.07;4.15;;;17.60;50.90;;;;;;5004087;28;20030;-62
2021/12/23 02:01:49;;;;;;;4.20;3.80;;;17.60;50.90;;;;;;5003253;28;20121;-62
2021/12/23 02:04:15;;;;;;;5.25;4.00;;;17.60;50.90;;;;;;5010356;28;20195;-59
2021/12/23 02:06:40;;;;;;;5.88;3.60;;;17.60;50.90;;;;;;5012196;28;20102;-64
2021/12/23 02:09:06;;;;;;;5.15;3.97;;;17.50;50.90;;;;;;5008179;28;20830;-61
2021/12/23 02:11:31;;;;;;;4.38;3.83;;;17.60;50.90;;;;;;5013196;28;20061;-65
2021/12/23 02:13:57;;;;;;;4.32;3.90;;;17.60;50.80;;;;;;5023387;22;20050;-74
2021/12/23 02:16:22;;;;;;;5.20;3.85;;;17.50;50.80;;;;;;5004653;28;20026;-74
2021/12/23 02:18:48;;;;;;;4.97;3.45;;;17.50;50.80;;;;;;5004921;28;20030;-74
2021/12/23 02:21:13;;;;;;;3.90;3.40;;;17.50;50.70;;;;;;5004502;28;20033;-74
2021/12/23 02:23:41;;;;;;;3.92;3.53;;;17.40;50.80;;;;;;5006868;28;20378;-74
2021/12/23 02:26:06;;;;;;;5.03;3.50;;;17.40;51.40;;;;;;5002384;28;20608;-74
2021/12/23 02:28:32;;;;;;;4.45;3.75;;;17.40;50.70;;;;;;5004713;28;20034;-74
2021/12/23 02:30:57;;;;;;;4.00;3.33;;;17.40;50.70;;;;;;5004750;28;20085;-73
2021/12/23 02:33:24;;;;;;;4.18;3.75;;;17.30;50.60;;;;;;5004831;28;20038;-74
2021/12/23 02:35:51;;;;;;;4.97;3.60;;;17.30;50.70;;;;;;5005005;28;20034;-74
2021/12/23 02:38:16;;;;;;;5.00;3.55;;;17.30;50.70;;;;;;4999013;28;20123;-74
2021/12/23 02:40:42;;;;;;;4.07;3.50;;;17.30;50.70;;;;;;4981648;28;20478;-74
2021/12/23 02:43:15;;;;;;;3.70;3.30;;;17.20;50.70;;;;;;5001217;28;20034;-74
2021/12/23 02:45:41;;;;;;;3.95;3.55;;;17.20;50.70;;;;;;5004952;28;20033;-74
2021/12/23 02:48:14;;;;;;;4.18;3.15;;;17.20;50.70;;;;;;5005903;28;20137;-74
2021/12/23 02:50:40;;;;;;;3.88;3.25;;;17.20;50.70;;;;;;5005535;28;20038;-73
2021/12/23 02:53:06;;;;;;;3.85;2.95;;;17.20;50.80;;;;;;5004205;28;20041;-73
2021/12/23 02:55:31;;;;;;;4.18;3.33;;;17.10;50.70;;;;;;5004285;28;20457;-74
2021/12/23 02:57:57;;;;;;;4.53;2.97;;;17.10;50.70;;;;;;5004502;28;20030;-73
2021/12/23 03:00:23;;;;;;;4.50;3.50;;;17.10;50.80;;;;;;5003680;28;20041;-74
2021/12/23 03:02:48;;;;;;;3.63;3.15;;;17.10;50.80;;;;;;5004361;28;20044;-74
2021/12/23 03:05:14;;;;;;;4.20;3.40;;;17.00;50.80;;;;;;5004694;28;20030;-74
2021/12/23 03:07:39;;;;;;;4.38;3.20;;;17.00;50.80;;;;;;5004327;28;20509;-74
2021/12/23 03:10:06;;;;;;;4.03;3.03;;;17.00;50.90;;;;;;5004073;28;20032;-74
2021/12/23 03:12:31;;;;;;;5.13;3.47;;;17.00;50.80;;;;;;5002707;28;20030;-74
2021/12/23 03:14:57;;;;;;;3.78;3.28;;;17.00;50.90;;;;;;5004244;28;20497;-73
2021/12/23 03:17:22;;;;;;;5.53;2.90;;;17.00;50.90;;;;;;5004409;28;20053;-73
2021/12/23 03:19:48;;;;;;;3.95;3.30;;;16.90;50.90;;;;;;5004227;28;20033;-73
2021/12/23 03:22:13;;;;;;;4.93;3.55;;;16.90;50.90;;;;;;5005311;28;20034;-73
2021/12/23 03:24:39;;;;;;;5.15;3.35;;;16.80;50.90;;;;;;5004121;28;20037;-75
2021/12/23 03:27:04;;;;;;;4.05;3.47;;;16.90;51.00;;;;;;5004348;28;20026;-73
2021/12/23 03:29:30;;;;;;;4.00;3.10;;;16.90;50.90;;;;;;5004058;28;20057;-74
2021/12/23 03:31:55;;;;;;;3.17;2.97;;;16.90;50.90;;;;;;4994696;28;20038;-73
2021/12/23 03:34:21;;;;;;;4.35;3.75;;;17.00;50.80;;;;;;4991324;28;20059;-73
2021/12/23 03:36:47;;;;;;;4.80;3.50;;;17.10;50.80;;;;;;5005531;28;20026;-73
2021/12/23 03:39:12;;;;;;;3.50;3.05;;;17.20;50.60;;;;;;5004647;28;20173;-74
2021/12/23 03:41:38;;;;;;;3.38;2.92;;;17.30;50.40;;;;;;5003944;28;20113;-74
2021/12/23 03:44:04;;;;;;;4.13;3.20;;;17.40;50.20;;;;;;5004139;28;20034;-73
2021/12/23 03:46:29;;;;;;;3.75;3.15;;;17.40;50.20;;;;;;5005532;28;20033;-74
2021/12/23 03:48:55;;;;;;;3.35;3.05;;;17.50;50.20;;;;;;5004690;28;20457;-74
2021/12/23 03:51:20;;;;;;;3.80;2.90;;;17.50;50.20;;;;;;5007132;28;20400;-74
2021/12/23 03:53:46;;;;;;;4.30;3.50;;;17.50;50.30;;;;;;5008589;28;20034;-74
2021/12/23 03:56:11;;;;;;;4.68;3.03;;;17.50;50.50;;;;;;5010865;28;20018;-74
2021/12/23 03:58:37;;;;;;;3.58;2.75;;;17.50;50.70;;;;;;5010112;28;20068;-74
2021/12/23 04:01:03;;;;;;;4.18;2.95;;;17.50;50.80;;;;;;5009190;28;20034;-74
2021/12/23 04:03:29;;;;;;;3.17;2.63;;;17.50;50.90;;;;;;5009058;28;20113;-74
2021/12/23 04:05:54;;;;;;;2.40;2.17;;;17.60;51.00;;;;;;5010890;28;20048;-74
2021/12/23 04:08:20;;;;;;;4.00;2.72;;;17.60;51.00;;;;;;5007636;28;20050;-74
2021/12/23 04:10:45;;;;;;;3.38;2.67;;;17.60;51.00;;;;;;5003447;28;20037;-73
2021/12/23 04:13:11;;;;;;;3.22;2.83;;;17.70;51.00;;;;;;5004941;28;20603;-74
2021/12/23 04:15:37;;;;;;;2.65;2.45;;;17.70;51.00;;;;;;5006411;28;20038;-74
2021/12/23 04:18:03;;;;;;;2.72;2.50;;;17.70;51.10;;;;;;5005119;28;20034;-74
2021/12/23 04:20:45;;;;;;;3.78;2.42;;;17.70;51.00;;;;;;5003628;28;20026;-73
2021/12/23 04:23:10;;;;;;;2.80;2.50;;;17.80;51.10;;;;;;5003542;28;20100;-73
2021/12/23 04:25:35;;;;;;;3.20;2.25;;;17.70;51.10;;;;;;5004728;28;20037;-74
2021/12/23 04:28:02;;;;;;;3.05;2.10;;;17.80;50.70;;;;;;5002495;28;20033;-74
2021/12/23 04:30:28;;;;;;;3.60;2.70;;;17.80;51.20;;;;;;5003376;28;20113;-74
2021/12/23 04:32:53;;;;;;;3.53;2.50;;;17.70;51.10;;;;;;5003182;28;20113;-74
2021/12/23 04:35:19;;;;;;;2.50;2.20;;;17.80;51.20;;;;;;5003411;28;20045;-74
2021/12/23 04:37:44;;;;;;;3.88;2.25;;;17.80;51.10;;;;;;5003647;28;20041;-74
2021/12/23 04:40:10;;;;;;;2.35;2.15;;;17.80;51.10;;;;;;5003226;28;20286;-74
2021/12/23 04:42:36;;;;;;;4.57;2.85;;;17.80;51.00;;;;;;5004172;28;20402;-74
2021/12/23 04:45:02;;;;;;;2.88;2.35;;;17.80;50.90;;;;;;5002090;28;20033;-74
2021/12/23 04:47:28;;;;;;;2.65;2.35;;;17.70;50.90;;;;;;4986367;28;20045;-74
2021/12/23 04:49:53;;;;;;;4.45;2.20;;;17.70;51.50;;;;;;5002501;28;20030;-74
2021/12/23 04:52:19;;;;;;;3.08;2.38;;;17.70;50.90;;;;;;5002347;28;20040;-74
2021/12/23 04:54:44;;;;;;;2.75;2.40;;;17.70;50.90;;;;;;5003325;28;20033;-74
2021/12/23 04:57:10;;;;;;;3.35;2.08;;;17.70;50.90;;;;;;5001997;28;21401;-73
2021/12/23 04:59:35;;;;;;;3.40;2.90;;;17.70;50.90;;;;;;5002624;28;20084;-73
2021/12/23 05:02:01;;;;;;;2.92;2.22;;;17.70;50.90;;;;;;5002546;28;20026;-73
2021/12/23 05:04:26;;;;;;;3.05;2.75;;;17.60;50.70;;;;;;5003663;28;20034;-73
2021/12/23 05:06:52;;;;;;;2.63;2.30;;;17.60;50.70;;;;;;4986239;28;20536;-73
2021/12/23 05:09:17;;;;;;;2.47;2.28;;;17.60;50.70;;;;;;5002242;28;20029;-73
2021/12/23 05:11:44;;;;;;;2.78;2.35;;;17.60;50.80;;;;;;5004302;28;20026;-73
2021/12/23 05:14:10;;;;;;;3.30;2.67;;;17.60;50.60;;;;;;4986131;28;20033;-73
2021/12/23 05:16:35;;;;;;;2.95;2.58;;;17.60;50.60;;;;;;5002323;28;20045;-73
2021/12/23 05:19:01;;;;;;;3.83;2.42;;;17.60;50.50;;;;;;5002196;28;20030;-73
2021/12/23 05:21:26;;;;;;;3.13;2.45;;;17.60;50.40;;;;;;5002902;28;20517;-73
2021/12/23 05:23:52;;;;;;;3.03;2.45;;;17.60;50.40;;;;;;4986198;28;20068;-73
2021/12/23 05:26:17;;;;;;;3.28;2.75;;;17.60;50.50;;;;;;4985792;28;20029;-73
2021/12/23 05:28:43;;;;;;;2.65;2.38;;;17.50;50.30;;;;;;5003720;28;20030;-74
2021/12/23 05:31:08;;;;;;;2.80;2.20;;;17.50;50.40;;;;;;5003363;28;20481;-73
2021/12/23 05:33:34;;;;;;;2.78;2.20;;;17.50;50.30;;;;;;5003720;28;20524;-73
2021/12/23 05:35:59;;;;;;;2.97;2.45;;;17.60;50.30;;;;;;5005521;28;20018;-73
2021/12/23 05:38:25;;;;;;;3.40;2.30;;;17.50;50.30;;;;;;5005894;28;20076;-73
2021/12/23 05:40:50;;;;;;;2.45;2.15;;;17.50;50.20;;;;;;5005996;28;20030;-74
2021/12/23 05:43:16;;;;;;;2.42;2.10;;;17.50;50.20;;;;;;5006275;28;20080;-73
2021/12/23 05:45:41;;;;;;;2.50;2.15;;;17.50;50.10;;;;;;5008492;28;20497;-74
2021/12/23 05:48:07;;;;;;;3.47;2.17;;;17.50;50.20;;;;;;5006356;28;20122;-73
2021/12/23 05:50:33;;;;;;;2.47;2.25;;;17.50;50.10;;;;;;5006013;28;20040;-73
2021/12/23 05:52:58;;;;;;;2.47;1.95;;;17.50;50.10;;;;;;5005596;28;20034;-73
2021/12/23 05:55:24;;;;;;;2.28;1.98;;;17.50;50.10;;;;;;5005929;28;20034;-73
2021/12/23 05:57:49;;;;;;;2.90;2.20;;;17.50;50.00;;;;;;4988666;28;20038;-72
2021/12/23 06:00:26;;;;;;;2.10;1.83;;;17.50;50.10;;;;;;5005849;28;20034;-73
2021/12/23 06:02:52;;;;;;;2.97;2.10;;;17.50;50.20;;;;;;5005689;28;20033;-73
2021/12/23 06:05:17;;;;;;;2.88;2.42;;;17.50;50.10;;;;;;5005417;28;20026;-73
2021/12/23 06:07:43;;;;;;;2.05;1.80;;;17.50;50.10;;;;;;5005697;28;20030;-74
2021/12/23 06:10:08;;;;;;;2.35;1.70;;;17.50;50.00;;;;;;5013896;22;20034;-56
2021/12/23 06:12:34;;;;;;;2.50;2.10;;;17.50;50.10;;;;;;5018670;28;20041;-57
2021/12/23 06:15:00;;;;;;;3.08;2.45;;;17.50;50.00;;;;;;5017500;28;20038;-58
2021/12/23 06:17:25;;;;;;;2.58;2.05;;;17.50;50.00;;;;;;5003352;28;20022;-58
2021/12/23 06:19:50;;;;;;;3.72;1.95;;;17.60;50.20;;;;;;5004229;28;20030;-56
2021/12/23 06:22:18;;;;;;;2.45;2.20;;;17.60;50.30;;;;;;5004957;28;20034;-59
2021/12/23 06:24:45;;;;;;;3.33;2.10;;;17.60;50.20;;;;;;5005823;28;20115;-55
2021/12/23 06:27:11;;;;;;;2.60;2.00;;;17.60;50.10;;;;;;5005142;28;20040;-59
2021/12/23 06:29:36;;;;;;;2.30;1.98;;;17.60;50.00;;;;;;5003784;28;20029;-59
2021/12/23 06:32:03;;;;;;;1.73;1.63;;;17.60;50.00;;;;;;5005119;28;20516;-57
2021/12/23 06:34:28;;;;;;;2.38;1.88;;;17.60;50.00;;;;;;5004949;28;20092;-58
2021/12/23 06:36:54;;;;;;;1.83;1.63;;;17.60;50.00;;;;;;5005159;28;20030;-58
2021/12/23 06:39:19;;;;;;;1.83;1.58;;;17.60;50.00;;;;;;5002929;28;20116;-59
2021/12/23 06:41:45;;;;;;;2.05;1.80;;;17.60;50.10;;;;;;5003156;28;20049;-60
2021/12/23 06:44:10;;;;;;;1.90;1.70;;;17.60;50.10;;;;;;5004827;28;20109;-55
2021/12/23 06:46:36;;;;;;;2.25;1.98;;;17.70;50.10;;;;;;5004403;28;20034;-59
2021/12/23 06:49:01;;;;;;;2.38;1.88;;;17.60;50.10;;;;;;5004206;28;20109;-58
2021/12/23 06:51:27;;;;;;;2.00;1.60;;;17.60;50.10;;;;;;5003949;28;20038;-58
2021/12/23 06:53:53;;;;;;;2.05;1.80;;;17.70;50.10;;;;;;5003008;28;20042;-57
2021/12/23 06:56:18;;;;;;;2.70;1.85;;;17.70;50.10;;;;;;5004707;28;20038;-55
2021/12/23 06:58:48;;;;;;;2.08;1.83;;;17.60;50.10;;;;;;5002283;28;20485;-57
2021/12/23 07:01:17;;;;;;;1.88;1.70;;;17.70;50.10;;;;;;5000046;28;20072;-59
2021/12/23 07:04:06;;;;;;;2.60;1.88;;;17.70;50.20;;;;;;5004865;28;20053;-56
2021/12/23 07:06:31;;;;;;;1.70;1.60;;;17.70;50.20;;;;;;5003958;28;20060;-56
2021/12/23 07:08:56;;;;;;;2.03;1.80;;;17.70;50.00;;;;;;5004163;28;20056;-55
2021/12/23 07:11:22;;;;;;;1.60;1.50;;;17.70;50.10;;;;;;5004010;28;20060;-56
2021/12/23 07:13:47;;;;;;;2.90;1.52;;;17.70;50.00;;;;;;5003584;28;20045;-56
2021/12/23 07:16:13;;;;;;;2.22;1.40;;;17.70;49.80;;;;;;5004010;28;20032;-58
2021/12/23 07:18:38;;;;;;;2.30;1.75;;;17.70;49.90;;;;;;5002980;28;20187;-58
2021/12/23 07:21:04;;;;;;;1.58;1.45;;;17.70;49.90;;;;;;5004153;28;20476;-58
2021/12/23 07:23:29;;;;;;;3.40;1.77;;;17.70;49.80;;;;;;5003680;28;20037;-56
2021/12/23 07:25:55;;;;;;;1.70;1.60;;;17.70;49.70;;;;;;5003753;28;20058;-59
2021/12/23 07:28:20;;;;;;;2.33;1.80;;;17.70;49.80;;;;;;5001869;28;20069;-57
2021/12/23 07:30:46;;;;;;;1.73;1.45;;;17.70;49.80;;;;;;5003195;28;20030;-58
2021/12/23 07:33:11;;;;;;;2.63;1.80;;;17.70;49.80;;;;;;4992151;28;20598;-58
2021/12/23 07:35:37;;;;;;;3.38;1.67;;;17.70;49.80;;;;;;5003515;28;20092;-58
2021/12/23 07:38:02;;;;;;;1.92;1.70;;;17.70;49.70;;;;;;5001069;28;20092;-58
2021/12/23 07:40:29;;;;;;;1.67;1.58;;;17.70;49.80;;;;;;5002928;28;20045;-56
2021/12/23 07:42:56;;;;;;;3.65;2.00;;;17.60;50.40;;;;;;5004557;28;20113;-60
2021/12/23 07:45:24;;;;;;;3.50;1.60;;;17.60;50.00;;;;;;5003534;28;20408;-56
2021/12/23 07:47:50;;;;;;;2.50;1.83;;;17.60;49.80;;;;;;5002368;28;20088;-57
2021/12/23 07:50:15;;;;;;;2.85;1.80;;;17.60;50.20;;;;;;5002018;28;20493;-54
2021/12/23 07:52:40;;;;;;;3.78;1.73;;;17.60;49.90;;;;;;5003045;28;20038;-60
2021/12/23 07:55:06;;;;;;;5.68;1.80;;;17.60;50.00;;;;;;5003146;28;20463;-55
2021/12/23 07:57:32;;;;;;;4.53;2.25;;;17.60;50.00;;;;;;5002966;28;20034;-55
2021/12/23 07:59:59;;;;;;;5.78;2.30;;;17.60;50.60;;;;;;5003183;28;20471;-58
2021/12/23 08:02:24;;;;;;;3.75;2.00;;;17.60;50.00;;;;;;5002393;28;20042;-54
2021/12/23 08:04:49;;;;;;;2.97;2.08;;;17.60;50.00;;;;;;5001847;28;20092;-53
2021/12/23 08:07:15;;;;;;;3.40;1.70;;;17.60;50.10;;;;;;5003579;28;20030;-56
2021/12/23 08:09:41;;;;;;;4.15;2.40;;;17.60;50.10;;;;;;5001026;28;20167;-54
2021/12/23 08:12:08;;;;;;;6.05;3.55;;;17.60;50.20;;;;;;5002560;28;20080;-56
2021/12/23 08:14:33;;;;;;;7.20;3.70;;;17.60;50.50;;;;;;5016563;23;20034;-54
2021/12/23 08:16:59;;;;;;;6.65;3.00;;;17.50;50.50;;;;;;4995557;28;20026;-53
2021/12/23 08:19:24;;;;;;;7.97;3.10;;;17.50;50.50;;;;;;5002760;28;20049;-54
2021/12/23 08:21:50;;;;;;;6.80;3.17;;;17.50;50.50;;;;;;5002872;28;20025;-57
2021/12/23 08:24:15;;;;;;;6.05;2.90;;;17.40;50.50;;;;;;5003616;28;20213;-54
2021/12/23 08:26:44;;;;;;;10.35;3.22;;;17.40;50.40;;;;;;5002160;28;20033;-51
2021/12/23 08:29:10;;;;;;;8.05;3.17;;;17.40;50.40;;;;;;5001967;28;20030;-57
2021/12/23 08:31:35;;;;;;;6.78;3.20;;;17.40;50.50;;;;;;5001843;28;20096;-49
2021/12/23 08:34:01;;;;;;;5.57;2.90;;;17.30;50.50;;;;;;5002715;28;20051;-54
2021/12/23 08:36:26;;;;;;;4.43;2.95;;;17.30;50.50;;;;;;5002503;28;20041;-54
2021/12/23 08:38:52;;;;;;;7.60;3.60;;;17.30;50.50;;;;;;5002587;28;20481;-52
2021/12/23 08:41:17;;;;;;;7.05;3.58;;;17.20;50.50;;;;;;5001942;28;20064;-51
2021/12/23 08:43:44;;;;;;;9.55;4.05;;;17.20;50.60;;;;;;5001315;28;20167;-53
2021/12/23 08:46:10;;;;;;;28.15;12.25;;;17.30;50.60;;;;;;5001954;28;20049;-54
2021/12/23 08:48:36;;;;;;;79.22;31.98;;;17.30;50.80;;;;;;5003290;28;20041;-53
2021/12/23 08:51:01;;;;;;;76.78;32.25;;;17.30;51.40;;;;;;5004184;28;20030;-55
2021/12/23 08:53:27;;;;;;;76.30;34.22;;;17.30;51.60;;;;;;5001996;28;20045;-53
2021/12/23 08:55:52;;;;;;;81.65;35.67;;;17.30;51.80;;;;;;5004991;28;20033;-54
2021/12/23 08:58:18;;;;;;;80.85;33.58;;;17.30;52.00;;;;;;5002134;28;20034;-54
2021/12/23 09:00:43;;;;;;;82.88;33.95;;;17.30;52.10;;;;;;5000351;28;20204;-56
2021/12/23 09:03:09;;;;;;;79.50;33.70;;;17.30;52.20;;;;;;4997808;28;20500;-57
2021/12/23 09:05:39;;;;;;;91.85;36.22;;;17.30;52.30;;;;;;4998745;28;20026;-53
2021/12/23 09:08:05;;;;;;;81.82;34.97;;;17.30;52.20;;;;;;4994288;28;20030;-50
2021/12/23 09:10:31;;;;;;;73.03;33.58;;;17.30;52.20;;;;;;4997265;28;20165;-51
2021/12/23 09:12:56;;;;;;;74.95;32.55;;;17.30;52.20;;;;;;4979232;28;20117;-52
2021/12/23 09:15:22;;;;;;;64.13;28.65;;;17.30;52.20;;;;;;4998671;28;20365;-55
2021/12/23 09:17:47;;;;;;;71.15;29.33;;;17.20;52.20;;;;;;4992319;28;20037;-60
2021/12/23 09:20:14;;;;;;;62.45;27.30;;;17.20;52.20;;;;;;5000663;28;20037;-51
2021/12/23 09:22:40;;;;;;;64.97;26.08;;;17.20;52.20;;;;;;5000434;28;20075;-57
2021/12/23 09:25:11;;;;;;;53.83;24.45;;;17.20;52.20;;;;;;5001009;28;20029;-52
2021/12/23 09:27:50;;;;;;;51.40;23.77;;;17.20;52.10;;;;;;4998658;28;20125;-52
2021/12/23 09:33:02;;;;;;;45.70;21.75;;;17.20;52.10;;;;;;5001790;28;20080;-54
2021/12/23 09:35:29;;;;;;;43.17;21.30;;;17.20;52.10;;;;;;5002144;28;20518;-51
2021/12/23 09:37:55;;;;;;;37.70;18.45;;;17.20;52.00;;;;;;4999070;28;20026;-57
2021/12/23 09:40:23;;;;;;;33.75;17.08;;;17.20;52.10;;;;;;5001583;28;20041;-52
2021/12/23 09:42:48;;;;;;;37.85;17.88;;;17.20;52.30;;;;;;5001834;28;20042;-51
2021/12/23 09:45:17;;;;;;;41.38;19.67;;;17.20;52.40;;;;;;4984832;28;20514;-53
2021/12/23 09:47:43;;;;;;;38.38;17.65;;;17.20;52.50;;;;;;4999530;28;20037;-55
2021/12/23 09:50:11;;;;;;;37.72;16.40;;;17.20;52.60;;;;;;5000651;28;20037;-52
2021/12/23 09:52:41;;;;;;;33.75;15.52;;;17.20;52.70;;;;;;4997503;28;20345;-66
2021/12/23 09:55:10;;;;;;;29.48;14.13;;;17.20;52.80;;;;;;4110136;28;10000250;-56
2021/12/23 09:57:35;;;;;;;32.25;14.35;;;17.20;53.10;;;;;;4986648;28;20762;-63
2021/12/23 10:00:01;;;;;;;30.02;13.88;;;17.20;53.30;;;;;;4110705;28;10000492;-53
2021/12/23 10:02:27;;;;;;;31.17;16.23;;;17.20;53.30;;;;;;4997545;28;20142;-53
2021/12/23 10:04:53;;;;;;;29.52;14.88;;;17.20;53.30;;;;;;5000600;28;20037;-51
2021/12/23 10:07:19;;;;;;;36.10;13.32;;;17.20;53.50;;;;;;5001414;28;20030;-52
2021/12/23 10:10:10;;;;;;;27.23;13.13;;;17.10;53.60;;;;;;4998961;28;20488;-53
2021/12/23 10:13:06;;;;;;;28.02;13.50;;;17.20;53.60;;;;;;5001948;28;20038;-51
2021/12/23 10:30:11;;;;;;;21.58;11.18;;;17.20;53.60;;;;;;4999937;28;20025;-50
2021/12/23 10:32:13;;;;;;;;;;;17.20;53.60;;;;;;5004278;28;20053;-54
2021/12/23 10:40:10;;;;;;;19.85;10.77;;;17.20;53.70;;;;;;5001391;28;20053;-51
2021/12/23 10:42:35;;;;;;;22.67;10.77;;;17.20;53.70;;;;;;5004292;28;20065;-53
2021/12/23 10:45:07;;;;;;;17.75;9.50;;;17.20;53.70;;;;;;5003842;28;20054;-55
2021/12/23 10:47:38;;;;;;;18.58;9.40;;;17.20;53.70;;;;;;5003051;28;20489;-52
2021/12/23 10:50:32;;;;;;;20.33;10.35;;;17.20;53.70;;;;;;5002967;28;20037;-51
2021/12/23 10:53:05;;;;;;;16.30;9.40;;;17.30;53.70;;;;;;5000761;28;20064;-56
2021/12/23 10:58:16;;;;;;;16.35;8.93;;;17.20;53.70;;;;;;4996694;28;20045;-51
2021/12/23 11:00:49;;;;;;;15.43;8.48;;;17.20;53.70;;;;;;4999376;28;20049;-56
2021/12/23 11:08:53;;;;;;;12.90;8.40;;;17.20;53.90;;;;;;5003488;28;20489;-55
2021/12/23 11:11:43;;;;;;;12.55;7.43;;;17.20;53.80;;;;;;5003787;28;20117;-53
2021/12/23 11:37:06;;;;;;;13.18;6.82;;;17.20;53.30;;;;;;5000305;28;20460;-56
2021/12/23 11:39:51;;;;;;;9.85;6.65;;;17.20;53.30;;;;;;4997427;28;20034;-55
2021/12/23 11:42:33;;;;;;;11.35;6.95;;;17.20;53.20;;;;;;5002731;28;20124;-56
2021/12/23 11:44:59;;;;;;;9.65;6.50;;;17.20;53.20;;;;;;4987888;28;20049;-56
2021/12/23 11:47:25;;;;;;;13.32;7.00;;;17.10;53.10;;;;;;4986321;28;20065;-55
2021/12/23 11:49:51;;;;;;;9.73;6.35;;;17.20;53.20;;;;;;4986130;28;20080;-55
2021/12/23 11:52:16;;;;;;;13.38;7.05;;;17.10;53.10;;;;;;5002092;28;20040;-52
2021/12/23 11:54:44;;;;;;;11.45;6.20;;;17.10;53.10;;;;;;5003078;28;20091;-52
2021/12/23 11:57:15;;;;;;;9.68;6.40;;;17.10;53.10;;;;;;5001337;28;20018;-56
2021/12/23 11:59:42;;;;;;;8.32;5.63;;;17.20;53.10;;;;;;5002363;28;20479;-53
2021/12/23 12:02:16;;;;;;;10.20;6.55;;;17.10;53.00;;;;;;4999760;28;20076;-56
2021/12/23 12:04:41;;;;;;;8.10;5.95;;;17.10;53.00;;;;;;5002832;28;20048;-52
2021/12/23 12:07:17;;;;;;;9.90;6.30;;;17.20;52.90;;;;;;4983904;28;20030;-52
2021/12/23 12:10:03;;;;;;;10.73;6.68;;;17.20;52.80;;;;;;4998858;28;20121;-53
2021/12/23 12:12:29;;;;;;;10.25;6.80;;;17.20;52.50;;;;;;4994147;28;20034;-52
2021/12/23 12:14:55;;;;;;;11.70;6.10;;;17.20;52.50;;;;;;4994812;28;20116;-50
2021/12/23 12:17:24;;;;;;;11.25;7.10;;;17.20;52.30;;;;;;5009884;28;20033;-51
2021/12/23 12:20:22;;;;;;;11.93;7.28;;;17.20;52.30;;;;;;5002238;28;20038;-55
2021/12/23 12:22:54;;;;;;;36.78;18.25;;;17.20;52.40;;;;;;5001834;28;20041;-55
2021/12/23 12:25:25;;;;;;;49.63;25.88;;;17.20;53.70;;;;;;5001636;28;20038;-52
2021/12/23 12:27:56;;;;;;;48.97;26.52;;;17.20;54.20;;;;;;5002393;28;20177;-51
2021/12/23 12:30:35;;;;;;;40.25;20.23;;;17.20;54.30;;;;;;4995400;28;20049;-54
2021/12/23 12:33:04;;;;;;;34.28;18.17;;;17.20;54.60;;;;;;5007419;28;20040;-54
2021/12/23 12:35:29;;;;;;;35.97;17.85;;;17.20;54.50;;;;;;4997871;28;20030;-55
2021/12/23 12:37:55;;;;;;;33.80;17.08;;;17.20;54.90;;;;;;5002757;28;20080;-54
2021/12/23 12:40:20;;;;;;;30.60;16.52;;;17.20;54.40;;;;;;4984698;28;20034;-53
2021/12/23 12:42:48;;;;;;;27.15;16.20;;;17.20;54.40;;;;;;5000492;28;20674;-50
2021/12/23 12:45:23;;;;;;;32.10;15.93;;;17.20;54.20;;;;;;5002203;28;20125;-50
2021/12/23 12:47:54;;;;;;;30.40;16.13;;;17.20;54.30;;;;;;4998630;28;25285;-56
2021/12/23 12:50:21;;;;;;;28.27;15.05;;;17.20;54.20;;;;;;5001801;28;20530;-50
2021/12/23 12:52:48;;;;;;;23.75;14.05;;;17.20;54.30;;;;;;5002424;28;20500;-53
2021/12/23 12:55:22;;;;;;;27.40;14.80;;;17.20;54.30;;;;;;5001119;28;20029;-55
2021/12/23 12:57:50;;;;;;;23.77;13.10;;;17.20;54.30;;;;;;5001270;28;20033;-55
2021/12/23 13:00:20;;;;;;;24.13;13.57;;;17.20;54.30;;;;;;5001719;28;20026;-54
2021/12/23 13:02:51;;;;;;;22.20;11.38;;;17.20;54.20;;;;;;4994455;28;20108;-53
2021/12/23 13:05:22;;;;;;;24.35;13.18;;;17.20;54.10;;;;;;5001703;28;20289;-49
2021/12/23 13:07:48;;;;;;;19.38;11.68;;;17.20;54.10;;;;;;4998636;28;20025;-53
2021/12/23 13:10:18;;;;;;;17.02;11.38;;;17.20;54.10;;;;;;5000901;28;20029;-52
2021/12/23 13:12:54;;;;;;;18.15;11.25;;;17.20;54.30;;;;;;5001735;28;20144;-54
2021/12/23 13:15:24;;;;;;;21.05;11.48;;;17.20;54.20;;;;;;5001750;28;20776;-53
2021/12/23 13:17:58;;;;;;;20.75;11.95;;;17.20;54.30;;;;;;5001902;28;20436;-55
2021/12/23 13:20:41;;;;;;;20.85;11.65;;;17.20;54.60;;;;;;4999439;28;20223;-51
2021/12/23 13:23:37;;;;;;;20.00;11.48;;;17.20;54.80;;;;;;5004133;28;20105;-54
2021/12/23 13:26:10;;;;;;;24.02;12.32;;;17.20;54.90;;;;;;5001610;28;20120;-52
2021/12/23 13:28:46;;;;;;;19.88;11.15;;;17.10;55.10;;;;;;5001853;28;20032;-52
2021/12/23 13:31:19;;;;;;;16.42;10.30;;;17.10;55.10;;;;;;5001270;28;20109;-51
2021/12/23 13:33:59;;;;;;;19.35;10.82;;;17.10;55.10;;;;;;4999960;28;20575;-53
2021/12/23 13:36:38;;;;;;;18.48;9.50;;;17.10;55.10;;;;;;5001929;28;20060;-54
2021/12/23 13:39:09;;;;;;;19.77;10.15;;;17.00;54.90;;;;;;4997312;28;20026;-52
2021/12/23 13:41:48;;;;;;;16.77;10.35;;;17.00;55.10;;;;;;5000111;28;20026;-53
2021/12/23 13:44:16;;;;;;;16.00;9.77;;;17.00;55.20;;;;;;5001952;28;20025;-53
2021/12/23 13:46:46;;;;;;;16.73;10.60;;;17.00;55.10;;;;;;5001194;28;20030;-52